createdAt,value
2022-09-23T00:01:20.819Z,89.90
2022-09-23T00:03:49.409Z,89.90
2022-09-23T00:06:21.888Z,90.00
2022-09-23T00:08:49.992Z,89.90
2022-09-23T00:11:28.480Z,90.10
2022-09-23T00:14:00.101Z,90.00
2022-09-23T00:16:34.650Z,90.20
2022-09-23T00:19:03.955Z,90.00
2022-09-23T00:21:31.082Z,90.00
2022-09-23T00:23:58.229Z,90.00
2022-09-23T00:26:25.505Z,89.70
2022-09-23T00:28:52.901Z,89.30
2022-09-23T00:31:26.124Z,89.50
2022-09-23T00:34:02.046Z,89.80
2022-09-23T00:36:30.387Z,89.80
2022-09-23T00:38:57.867Z,90.00
2022-09-23T00:41:26.218Z,90.20
2022-09-23T00:44:00.138Z,90.20
2022-09-23T00:46:37.957Z,90.10
2022-09-23T00:49:20.641Z,90.10
2022-09-23T00:51:58.889Z,90.30
2022-09-23T00:54:27.844Z,90.40
2022-09-23T00:56:57.665Z,90.30
2022-09-23T00:59:26.214Z,90.20
2022-09-23T01:01:55.897Z,90.20
2022-09-23T01:04:28.777Z,90.00
2022-09-23T01:06:55.890Z,90.20
2022-09-23T01:09:24.336Z,90.30
2022-09-23T01:12:33.333Z,90.10
2022-09-23T01:15:48.595Z,89.60
2022-09-23T01:18:48.914Z,90.10
2022-09-23T01:21:49.230Z,90.40
2022-09-23T01:24:49.747Z,90.60
2022-09-23T01:27:40.174Z,90.60
2022-09-23T01:30:28.813Z,90.50
2022-09-23T01:33:36.570Z,90.50
2022-09-23T01:36:14.517Z,90.20
2022-09-23T01:39:17.957Z,90.10
2022-09-23T01:41:55.717Z,90.40
2022-09-23T01:44:40.581Z,90.50
2022-09-23T01:47:28.261Z,90.50
2022-09-23T01:50:33.136Z,90.50
2022-09-23T01:53:07.324Z,90.60
2022-09-23T01:55:41.814Z,90.70
2022-09-23T01:58:59.790Z,90.60
2022-09-23T02:01:45.844Z,90.50
2022-09-23T02:04:39.667Z,90.40
2022-09-23T02:07:38.371Z,90.40
2022-09-23T02:10:47.707Z,90.40
2022-09-23T02:14:02.868Z,90.40
2022-09-23T02:16:53.705Z,90.40
2022-09-23T02:19:29.185Z,90.20
2022-09-23T02:22:08.398Z,90.40
2022-09-23T02:24:39.485Z,90.70
2022-09-23T02:27:40.997Z,90.40
2022-09-23T02:30:20.300Z,90.30
2022-09-23T02:32:57.158Z,90.30
2022-09-23T02:35:34.698Z,90.00
2022-09-23T02:38:13.697Z,89.60
2022-09-23T02:41:12.382Z,89.90
2022-09-23T02:43:39.340Z,90.30
2022-09-23T02:46:07.603Z,90.40
2022-09-23T02:48:43.357Z,90.30
2022-09-23T02:51:11.133Z,90.40
2022-09-23T02:53:38.340Z,90.80
2022-09-23T02:56:21.070Z,90.50
2022-09-23T02:58:51.886Z,90.50
2022-09-23T03:02:17.344Z,90.70
2022-09-23T03:05:21.694Z,90.50
2022-09-23T03:08:13.455Z,90.50
2022-09-23T03:11:03.036Z,90.70
2022-09-23T03:13:48.018Z,90.80
2022-09-23T03:17:03.633Z,90.80
2022-09-23T03:19:41.493Z,90.80
2022-09-23T03:22:45.484Z,91.10
2022-09-23T03:25:18.276Z,90.60
2022-09-23T03:27:45.898Z,90.50
2022-09-23T03:30:14.270Z,90.60
2022-09-23T03:32:47.149Z,90.50
2022-09-23T03:35:15.029Z,90.60
2022-09-23T03:37:55.373Z,90.70
2022-09-23T03:40:32.887Z,90.60
2022-09-23T03:43:02.654Z,90.70
2022-09-23T03:45:34.600Z,90.50
2022-09-23T03:48:02.385Z,90.50
2022-09-23T03:50:29.795Z,90.40
2022-09-23T03:52:57.128Z,90.50
2022-09-23T03:55:24.186Z,90.60
2022-09-23T03:57:51.470Z,90.60
2022-09-23T04:00:18.564Z,90.90
2022-09-23T04:02:45.678Z,90.60
2022-09-23T04:05:13.560Z,90.90
2022-09-23T04:07:41.088Z,90.60
2022-09-23T04:10:10.049Z,90.90
2022-09-23T04:12:37.941Z,90.50
2022-09-23T04:15:05.861Z,90.40
2022-09-23T04:17:32.894Z,90.40
2022-09-23T04:19:59.910Z,90.50
2022-09-23T04:22:26.908Z,90.50
2022-09-23T04:24:53.920Z,90.60
2022-09-23T04:27:20.952Z,90.50
2022-09-23T04:29:47.967Z,90.90
2022-09-23T04:32:14.951Z,90.40
2022-09-23T04:34:42.449Z,90.40
2022-09-23T04:37:09.632Z,90.60
2022-09-23T04:39:36.646Z,90.40
2022-09-23T04:42:04.336Z,91.00
2022-09-23T04:44:31.427Z,90.20
2022-09-23T04:46:58.686Z,90.50
2022-09-23T04:49:26.238Z,90.40
2022-09-23T04:51:54.315Z,90.60
2022-09-23T04:54:21.392Z,90.70
2022-09-23T04:56:48.437Z,90.70
2022-09-23T04:59:15.579Z,90.60
2022-09-23T05:01:43.714Z,90.80
2022-09-23T05:04:14.070Z,90.60
2022-09-23T05:06:45.318Z,90.60
2022-09-23T05:09:17.669Z,90.50
2022-09-23T05:11:45.700Z,90.30
2022-09-23T05:14:13.167Z,90.50
2022-09-23T05:16:40.780Z,90.40
2022-09-23T05:19:08.054Z,90.30
2022-09-23T05:21:35.286Z,90.70
2022-09-23T05:24:02.803Z,90.70
2022-09-23T05:26:32.877Z,90.40
2022-09-23T05:29:00.634Z,90.40
2022-09-23T05:31:30.269Z,90.60
2022-09-23T05:34:01.503Z,90.70
2022-09-23T05:36:36.943Z,90.90
2022-09-23T05:39:06.655Z,90.90
2022-09-23T05:41:34.071Z,90.90
2022-09-23T05:44:01.750Z,91.10
2022-09-23T05:46:31.020Z,91.10
2022-09-23T05:49:02.976Z,91.00
2022-09-23T05:51:32.498Z,91.00
2022-09-23T05:54:02.976Z,91.50
2022-09-23T05:56:31.849Z,91.00
2022-09-23T05:59:01.881Z,91.10
2022-09-23T06:01:34.037Z,91.20
2022-09-23T06:04:04.770Z,91.30
2022-09-23T06:06:36.603Z,91.60
2022-09-23T06:09:05.803Z,91.60
2022-09-23T06:11:35.436Z,91.50
2022-09-23T06:14:03.402Z,91.70
2022-09-23T06:16:34.606Z,92.00
2022-09-23T06:19:06.261Z,91.60
2022-09-23T06:21:37.850Z,91.80
2022-09-23T06:24:07.017Z,91.80
2022-09-23T06:26:36.471Z,91.90
2022-09-23T06:29:10.097Z,91.90
2022-09-23T06:31:37.748Z,91.80
2022-09-23T06:34:11.823Z,91.90
2022-09-23T06:36:45.974Z,91.80
2022-09-23T06:39:15.169Z,91.90
2022-09-23T06:41:43.418Z,91.90
2022-09-23T06:44:15.146Z,92.60
2022-09-23T06:46:42.674Z,92.30
2022-09-23T06:49:10.657Z,92.60
2022-09-23T06:51:37.734Z,92.90
2022-09-23T06:54:04.922Z,93.00
2022-09-23T06:56:37.801Z,93.00
2022-09-23T06:59:10.532Z,93.20
2022-09-23T07:01:38.288Z,93.30
2022-09-23T07:04:07.947Z,93.40
2022-09-23T07:06:35.374Z,93.60
2022-09-23T07:09:03.305Z,93.80
2022-09-23T07:11:30.468Z,94.20
2022-09-23T07:13:57.558Z,93.90
2022-09-23T07:16:24.747Z,94.00
2022-09-23T07:18:53.481Z,94.20
2022-09-23T07:21:20.754Z,94.80
2022-09-23T07:23:51.399Z,94.60
2022-09-23T07:26:20.013Z,94.70
2022-09-23T07:28:47.468Z,94.70
2022-09-23T07:31:30.903Z,94.90
2022-09-23T07:34:02.736Z,95.00
2022-09-23T07:36:32.880Z,95.00
2022-09-23T07:39:03.933Z,95.20
2022-09-23T07:41:33.032Z,95.00
2022-09-23T07:44:00.669Z,94.90
2022-09-23T07:46:31.609Z,95.00
2022-09-23T07:48:59.704Z,95.10
2022-09-23T07:51:36.475Z,95.20
2022-09-23T07:54:10.113Z,95.20
2022-09-23T07:56:38.627Z,95.10
2022-09-23T07:59:08.996Z,95.10
2022-09-23T08:01:41.367Z,95.30
2022-09-23T08:04:25.942Z,95.50
2022-09-23T08:06:57.663Z,95.50
2022-09-23T08:09:31.944Z,95.60
2022-09-23T08:11:59.183Z,95.70
2022-09-23T08:14:26.277Z,95.60
2022-09-23T08:16:54.254Z,95.50
2022-09-23T08:19:21.408Z,95.40
2022-09-23T08:21:49.918Z,95.50
2022-09-23T08:24:20.838Z,95.50
2022-09-23T08:26:49.111Z,95.50
2022-09-23T08:29:19.122Z,95.90
2022-09-23T08:31:47.483Z,95.60
2022-09-23T08:34:14.694Z,95.60
2022-09-23T08:36:41.931Z,95.60
2022-09-23T08:39:15.272Z,95.90
2022-09-23T08:41:58.540Z,95.50
2022-09-23T08:44:30.686Z,95.60
2022-09-23T08:47:15.467Z,95.80
2022-09-23T08:49:57.799Z,96.10
2022-09-23T08:52:39.920Z,96.00
2022-09-23T08:55:13.856Z,95.80
2022-09-23T08:58:30.925Z,96.10
2022-09-23T09:01:15.710Z,95.90
2022-09-23T09:03:49.492Z,95.70
2022-09-23T09:06:41.923Z,95.50
2022-09-23T09:09:29.175Z,95.40
2022-09-23T09:12:14.227Z,95.80
2022-09-23T09:15:12.943Z,95.40
2022-09-23T09:17:50.409Z,95.20
2022-09-23T09:20:36.423Z,94.90
2022-09-23T09:23:12.455Z,94.90
2022-09-23T09:25:51.058Z,94.60
2022-09-23T09:28:24.701Z,94.70
2022-09-23T09:30:59.916Z,94.20
2022-09-23T09:33:52.391Z,93.90
2022-09-23T09:36:49.844Z,93.20
2022-09-23T09:39:17.391Z,92.90
2022-09-23T09:41:51.954Z,92.60
2022-09-23T09:44:49.781Z,92.70
2022-09-23T09:47:34.161Z,91.80
2022-09-23T09:50:22.164Z,91.10
2022-09-23T09:52:49.359Z,91.10
2022-09-23T09:55:26.746Z,90.00
2022-09-23T09:58:05.278Z,87.60
2022-09-23T10:00:43.070Z,89.30
2022-09-23T10:03:13.394Z,88.80
2022-09-23T10:05:46.636Z,89.00
2022-09-23T10:08:37.286Z,89.40
2022-09-23T10:11:15.491Z,89.50
2022-09-23T10:14:05.356Z,87.20
2022-09-23T10:16:34.828Z,88.00
2022-09-23T10:19:13.702Z,86.50
2022-09-23T10:21:42.361Z,85.00
2022-09-23T10:24:29.890Z,83.90
2022-09-23T10:27:11.926Z,84.70
2022-09-23T10:29:48.168Z,84.50
2022-09-23T10:32:44.239Z,84.90
2022-09-23T10:35:13.944Z,84.30
2022-09-23T10:37:56.575Z,82.90
2022-09-23T10:41:01.144Z,82.60
2022-09-23T10:44:11.693Z,83.60
2022-09-23T10:47:15.093Z,82.90
2022-09-23T10:50:08.650Z,84.00
2022-09-23T10:53:08.598Z,85.30
2022-09-23T10:56:02.026Z,84.30
2022-09-23T10:59:02.840Z,82.80
2022-09-23T11:01:39.854Z,82.10
2022-09-23T11:05:03.535Z,82.20
2022-09-23T11:07:44.401Z,80.50
2022-09-23T11:10:45.611Z,78.90
2022-09-23T11:14:16.910Z,78.40
2022-09-23T11:16:55.789Z,79.50
2022-09-23T11:20:00.389Z,77.60
2022-09-23T11:23:07.449Z,77.20
2022-09-23T11:26:33.237Z,77.30
2022-09-23T11:29:25.343Z,74.60
2022-09-23T11:32:48.215Z,74.80
2022-09-23T11:35:35.758Z,74.40
2022-09-23T11:38:13.194Z,73.40
2022-09-23T11:40:46.531Z,75.50
2022-09-23T11:43:25.486Z,75.10
2022-09-23T11:46:18.412Z,74.70
2022-09-23T11:49:02.178Z,75.80
2022-09-23T11:51:34.726Z,71.40
2022-09-23T11:54:17.255Z,70.70
2022-09-23T11:56:54.622Z,71.50
2022-09-23T11:59:43.848Z,72.50
2022-09-23T12:02:31.006Z,72.30
2022-09-23T12:05:30.622Z,69.10
2022-09-23T12:08:25.745Z,71.40
2022-09-23T12:11:01.674Z,70.80
2022-09-23T12:14:05.774Z,68.70
2022-09-23T12:17:19.457Z,69.30
2022-09-23T12:20:31.305Z,66.60
2022-09-23T12:23:23.053Z,63.90
2022-09-23T12:26:01.830Z,67.20
2022-09-23T12:28:39.524Z,66.30
2022-09-23T12:31:14.909Z,65.20
2022-09-23T12:33:52.191Z,66.60
2022-09-23T12:36:36.041Z,66.80
2022-09-23T12:39:15.594Z,65.70
2022-09-23T12:41:48.723Z,66.70
2022-09-23T12:44:41.227Z,66.50
2022-09-23T12:47:29.558Z,67.40
2022-09-23T12:49:57.565Z,66.30
2022-09-23T12:52:32.680Z,62.30
2022-09-23T12:55:23.312Z,62.00
2022-09-23T12:57:50.654Z,64.40
2022-09-23T13:00:20.876Z,62.60
2022-09-23T13:02:47.875Z,59.00
2022-09-23T13:05:41.878Z,59.20
2022-09-23T13:08:16.298Z,59.60
2022-09-23T13:11:01.121Z,61.90
2022-09-23T13:13:45.443Z,61.50
2022-09-23T13:16:34.740Z,55.10
2022-09-23T13:19:26.689Z,54.10
2022-09-23T13:21:53.658Z,55.20
2022-09-23T13:24:23.861Z,56.50
2022-09-23T13:27:17.902Z,54.30
2022-09-23T13:29:56.807Z,54.10
2022-09-23T13:32:39.602Z,51.30
2022-09-23T13:35:24.545Z,51.70
2022-09-23T13:37:52.739Z,51.20
2022-09-23T13:40:29.287Z,51.30
2022-09-23T13:43:03.241Z,49.60
2022-09-23T13:45:32.186Z,51.60
2022-09-23T13:48:11.894Z,51.70
2022-09-23T13:50:43.182Z,50.80
2022-09-23T13:53:17.842Z,50.90
2022-09-23T13:55:50.206Z,50.60
2022-09-23T13:58:23.966Z,52.70
2022-09-23T14:00:51.962Z,51.00
2022-09-23T14:03:22.023Z,51.40
2022-09-23T14:05:50.312Z,52.20
2022-09-23T14:08:17.816Z,53.40
2022-09-23T14:10:46.949Z,55.40
2022-09-23T14:13:32.834Z,55.90
2022-09-23T14:16:04.130Z,52.30
2022-09-23T14:18:41.118Z,52.50
2022-09-23T14:21:27.033Z,51.30
2022-09-23T14:23:54.297Z,51.40
2022-09-23T14:26:24.020Z,53.30
2022-09-23T14:28:52.299Z,51.00
2022-09-23T14:31:19.697Z,53.00
2022-09-23T14:33:47.007Z,50.80
2022-09-23T14:36:37.597Z,52.20
2022-09-23T14:39:11.222Z,53.30
2022-09-23T14:41:45.466Z,56.40
2022-09-23T14:44:22.785Z,53.00
2022-09-23T14:46:59.769Z,54.50
2022-09-23T14:49:27.835Z,56.00
2022-09-23T14:52:01.377Z,57.50
2022-09-23T14:57:22.635Z,55.70
2022-09-23T15:00:17.234Z,55.60
2022-09-23T15:02:58.989Z,55.40
2022-09-23T15:05:43.708Z,54.40
2022-09-23T15:08:23.069Z,51.30
2022-09-23T15:10:51.344Z,53.50
2022-09-23T15:13:23.559Z,53.20
2022-09-23T15:15:55.545Z,54.60
2022-09-23T15:18:30.124Z,54.40
2022-09-23T15:21:19.400Z,55.00
2022-09-23T15:23:56.088Z,56.20
2022-09-23T15:26:25.976Z,57.60
2022-09-23T15:28:58.378Z,58.40
2022-09-23T15:36:28.584Z,58.20
2022-09-23T15:39:01.213Z,58.30
2022-09-23T15:43:56.580Z,58.10
2022-09-23T15:46:29.683Z,59.70
2022-09-23T15:49:04.872Z,58.80
2022-09-23T16:01:31.489Z,60.70
2022-09-23T16:08:58.234Z,59.20
2022-09-23T16:11:29.386Z,61.20
2022-09-23T16:13:56.486Z,58.90
2022-09-23T16:21:27.995Z,59.50
2022-09-23T16:23:57.405Z,59.80
2022-09-23T16:26:29.649Z,60.90
2022-09-23T16:28:59.395Z,62.80
2022-09-23T16:31:29.579Z,60.80
2022-09-23T16:33:57.804Z,62.10
2022-09-23T16:36:31.205Z,61.30
2022-09-23T16:39:00.749Z,63.90
2022-09-23T16:41:31.113Z,61.70
2022-09-23T16:44:00.907Z,62.00
2022-09-23T16:46:30.221Z,62.00
2022-09-23T16:48:58.778Z,62.20
2022-09-23T16:51:38.373Z,64.60
2022-09-23T16:54:10.383Z,64.60
2022-09-23T16:56:45.106Z,64.70
2022-09-23T16:59:16.386Z,64.10
2022-09-23T17:02:02.557Z,64.10
2022-09-23T17:04:29.697Z,64.10
2022-09-23T17:06:56.893Z,63.70
2022-09-23T17:09:28.029Z,64.10
2022-09-23T17:12:20.254Z,64.30
2022-09-23T17:14:47.407Z,63.10
2022-09-23T17:17:14.451Z,64.80
2022-09-23T17:19:41.547Z,64.90
2022-09-23T17:22:09.929Z,65.00
2022-09-23T17:24:37.048Z,65.90
2022-09-23T17:27:04.182Z,65.40
2022-09-23T17:29:31.261Z,65.70
2022-09-23T17:31:58.388Z,65.80
2022-09-23T17:34:25.417Z,65.70
2022-09-23T17:36:52.419Z,65.90
2022-09-23T17:39:19.417Z,66.10
2022-09-23T17:41:46.499Z,66.20
2022-09-23T17:44:15.473Z,66.30
2022-09-23T17:46:42.769Z,66.40
2022-09-23T17:49:10.032Z,66.80
2022-09-23T17:51:37.334Z,67.20
2022-09-23T17:54:04.554Z,67.70
2022-09-23T17:56:31.684Z,67.90
2022-09-23T17:59:02.037Z,68.10
2022-09-23T18:01:30.150Z,68.00
2022-09-23T18:04:01.010Z,68.30
2022-09-23T18:06:35.634Z,68.30
2022-09-23T18:09:06.561Z,68.40
2022-09-23T18:11:39.475Z,68.40
2022-09-23T18:14:20.039Z,68.90
2022-09-23T18:16:53.694Z,69.20
2022-09-23T18:19:24.464Z,69.30
2022-09-23T18:21:56.031Z,69.30
2022-09-23T18:24:33.101Z,69.60
2022-09-23T18:27:01.679Z,70.10
2022-09-23T18:29:28.830Z,70.00
2022-09-23T18:31:56.276Z,70.50
2022-09-23T18:34:23.698Z,70.80
2022-09-23T18:36:51.010Z,71.00
2022-09-23T18:39:18.219Z,70.90
2022-09-23T18:41:45.290Z,71.10
2022-09-23T18:44:12.378Z,71.80
2022-09-23T18:46:39.437Z,72.00
2022-09-23T18:49:25.314Z,71.80
2022-09-23T18:51:57.789Z,71.70
2022-09-23T18:54:28.270Z,72.00
2022-09-23T18:56:55.935Z,72.60
2022-09-23T18:59:27.899Z,72.80
2022-09-23T19:01:55.896Z,72.80
2022-09-23T19:04:25.224Z,73.10
2022-09-23T19:06:54.774Z,73.00
2022-09-23T19:09:22.002Z,73.10
2022-09-23T19:11:52.285Z,73.70
2022-09-23T19:14:20.089Z,74.00
2022-09-23T19:16:49.167Z,73.90
2022-09-23T19:19:17.105Z,73.70
2022-09-23T19:21:44.175Z,73.20
2022-09-23T19:24:15.881Z,73.00
2022-09-23T19:26:44.134Z,73.40
2022-09-23T19:29:19.901Z,74.00
2022-09-23T19:31:47.510Z,74.20
2022-09-23T19:34:18.997Z,74.10
2022-09-23T19:36:47.779Z,73.80
2022-09-23T19:39:24.953Z,74.70
2022-09-23T19:41:56.707Z,75.30
2022-09-23T19:44:25.612Z,75.60
2022-09-23T19:46:56.693Z,76.00
2022-09-23T19:49:25.846Z,76.40
2022-09-23T19:51:55.966Z,76.00
2022-09-23T19:54:26.598Z,75.50
2022-09-23T19:56:53.785Z,76.10
2022-09-23T19:59:20.907Z,76.10
2022-09-23T20:01:48.991Z,76.00
2022-09-23T20:04:17.055Z,76.60
2022-09-23T20:06:45.967Z,76.30
2022-09-23T20:09:13.303Z,76.00
2022-09-23T20:11:43.129Z,77.10
2022-09-23T20:14:11.974Z,77.30
2022-09-23T20:16:39.214Z,76.80
2022-09-23T20:19:06.521Z,76.50
2022-09-23T20:21:35.451Z,77.10
2022-09-23T20:24:07.804Z,77.70
2022-09-23T20:26:53.817Z,78.10
2022-09-23T20:29:20.874Z,78.30
2022-09-23T20:31:48.426Z,78.30
2022-09-23T20:34:15.586Z,78.90
2022-09-23T20:36:42.683Z,79.10
2022-09-23T20:39:10.618Z,78.90
2022-09-23T20:41:39.349Z,79.60
2022-09-23T20:44:12.606Z,79.90
2022-09-23T20:46:48.240Z,79.90
2022-09-23T20:49:19.650Z,80.00
2022-09-23T20:51:50.684Z,79.40
2022-09-23T20:54:19.309Z,78.90
2022-09-23T20:56:47.213Z,78.50
2022-09-23T20:59:15.040Z,78.80
2022-09-23T21:01:42.283Z,79.80
2022-09-23T21:04:10.263Z,80.00
2022-09-23T21:06:38.899Z,79.80
2022-09-23T21:09:07.351Z,79.20
2022-09-23T21:11:34.463Z,79.30
2022-09-23T21:14:02.211Z,79.30
2022-09-23T21:16:30.245Z,79.00
2022-09-23T21:18:58.660Z,79.20
2022-09-23T21:21:26.127Z,80.00
2022-09-23T21:23:53.141Z,80.10
2022-09-23T21:26:23.937Z,80.30
2022-09-23T21:28:58.961Z,80.60
2022-09-23T21:31:38.687Z,80.10
2022-09-23T21:34:11.359Z,80.30
2022-09-23T21:36:42.815Z,81.00
2022-09-23T21:39:11.994Z,82.10
2022-09-23T21:41:40.110Z,82.60
2022-09-23T21:44:08.511Z,83.50
2022-09-23T21:46:36.926Z,83.70
2022-09-23T21:49:05.075Z,84.40
2022-09-23T21:51:38.806Z,84.60
2022-09-23T21:54:08.305Z,84.20
2022-09-23T21:56:37.702Z,84.00
2022-09-23T21:59:07.760Z,84.60
2022-09-23T22:01:44.347Z,85.70
2022-09-23T22:04:18.879Z,85.40
2022-09-23T22:06:46.821Z,84.10
2022-09-23T22:09:18.768Z,85.90
2022-09-23T22:12:05.461Z,85.80
2022-09-23T22:14:32.542Z,85.70
2022-09-23T22:17:06.250Z,85.00
2022-09-23T22:19:40.191Z,84.30
2022-09-23T22:22:13.337Z,84.40
2022-09-23T22:24:45.679Z,85.20
2022-09-23T22:27:16.785Z,85.20
2022-09-23T22:30:02.255Z,85.20
2022-09-23T22:32:35.313Z,85.80
2022-09-23T22:35:03.106Z,85.70
2022-09-23T22:37:34.646Z,85.20
2022-09-23T22:40:09.579Z,85.40
2022-09-23T22:42:37.262Z,85.90
2022-09-23T22:45:05.858Z,85.60
2022-09-23T22:47:38.202Z,85.70
2022-09-23T22:50:09.541Z,86.10
2022-09-23T22:52:37.866Z,86.70
2022-09-23T22:55:08.076Z,87.10
2022-09-23T22:57:36.501Z,87.20
2022-09-23T23:00:06.271Z,86.80
2022-09-23T23:02:33.405Z,87.20
2022-09-23T23:05:00.975Z,87.50
2022-09-23T23:07:28.013Z,86.90
2022-09-23T23:09:55.079Z,86.80
2022-09-23T23:12:22.307Z,86.90
2022-09-23T23:14:49.998Z,86.40
2022-09-23T23:17:18.721Z,86.00
2022-09-23T23:19:46.062Z,86.50
2022-09-23T23:22:13.083Z,87.00
2022-09-23T23:24:40.109Z,87.00
2022-09-23T23:27:07.193Z,86.60
2022-09-23T23:29:34.315Z,87.50
2022-09-23T23:32:01.647Z,87.20
2022-09-23T23:34:28.669Z,87.50
2022-09-23T23:36:55.956Z,87.10
2022-09-23T23:39:25.103Z,86.80
2022-09-23T23:41:57.669Z,86.70
2022-09-23T23:44:26.753Z,86.30
2022-09-23T23:46:55.271Z,87.10
2022-09-23T23:49:22.742Z,87.60
2022-09-23T23:51:50.082Z,87.20
2022-09-23T23:54:17.129Z,87.60
2022-09-23T23:56:44.218Z,87.80
2022-09-23T23:59:11.430Z,87.60
